createdAt,value
2022-08-01T00:01:14.950Z,100.00
2022-08-01T00:03:42.202Z,100.00
2022-08-01T00:06:08.927Z,100.00
2022-08-01T00:08:35.624Z,100.00
2022-08-01T00:11:03.019Z,100.00
2022-08-01T00:13:29.924Z,100.00
2022-08-01T00:15:56.674Z,100.00
2022-08-01T00:18:23.548Z,100.00
2022-08-01T00:20:50.369Z,100.00
2022-08-01T00:23:17.137Z,100.00
2022-08-01T00:25:43.845Z,100.00
2022-08-01T00:28:10.833Z,100.00
2022-08-01T00:30:37.834Z,100.00
2022-08-01T00:33:04.751Z,100.00
2022-08-01T00:35:31.578Z,100.00
2022-08-01T00:37:58.294Z,100.00
2022-08-01T00:40:25.030Z,100.00
2022-08-01T00:42:51.766Z,100.00
2022-08-01T00:45:18.592Z,100.00
2022-08-01T00:47:45.652Z,100.00
2022-08-01T00:50:12.813Z,100.00
2022-08-01T00:52:41.738Z,100.00
2022-08-01T00:55:15.098Z,100.00
2022-08-01T00:58:02.833Z,100.00
2022-08-01T01:00:52.006Z,100.00
2022-08-01T01:03:23.892Z,100.00
2022-08-01T01:06:37.668Z,100.00
2022-08-01T01:09:36.273Z,100.00
2022-08-01T01:12:39.092Z,100.00
2022-08-01T01:16:13.184Z,100.00
2022-08-01T01:18:58.594Z,100.00
2022-08-01T01:22:05.030Z,100.00
2022-08-01T01:25:03.662Z,100.00
2022-08-01T01:27:52.504Z,100.00
2022-08-01T01:30:20.079Z,100.00
2022-08-01T01:32:53.247Z,100.00
2022-08-01T01:35:31.911Z,100.00
2022-08-01T01:38:23.776Z,100.00
2022-08-01T01:40:59.821Z,100.00
2022-08-01T01:43:33.447Z,100.00
2022-08-01T01:46:03.354Z,100.00
2022-08-01T01:48:32.029Z,100.00
2022-08-01T01:51:01.312Z,100.00
2022-08-01T01:53:31.905Z,100.00
2022-08-01T01:56:02.151Z,100.00
2022-08-01T01:58:35.250Z,100.00
2022-08-01T02:01:14.365Z,100.00
2022-08-01T02:03:44.461Z,100.00
2022-08-01T02:06:16.931Z,100.00
2022-08-01T02:08:48.729Z,100.00
2022-08-01T02:11:22.396Z,100.00
2022-08-01T02:14:05.660Z,100.00
2022-08-01T02:16:45.131Z,100.00
2022-08-01T02:19:13.326Z,100.00
2022-08-01T02:22:21.574Z,100.00
2022-08-01T02:25:20.109Z,100.00
2022-08-01T02:28:39.442Z,100.00
2022-08-01T02:31:17.003Z,100.00
2022-08-01T02:34:03.105Z,100.00
2022-08-01T02:36:38.870Z,100.00
2022-08-01T02:39:20.021Z,100.00
2022-08-01T02:41:58.075Z,100.00
2022-08-01T02:44:33.742Z,100.00
2022-08-01T02:47:05.633Z,100.00
2022-08-01T02:49:53.181Z,100.00
2022-08-01T02:52:26.171Z,100.00
2022-08-01T02:54:58.011Z,100.00
2022-08-01T02:57:30.138Z,100.00
2022-08-01T03:00:17.533Z,100.00
2022-08-01T03:02:49.430Z,100.00
2022-08-01T03:05:18.690Z,100.00
2022-08-01T03:07:48.472Z,100.00
2022-08-01T03:10:18.535Z,100.00
2022-08-01T03:12:50.427Z,100.00
2022-08-01T03:15:20.733Z,100.00
2022-08-01T03:17:55.779Z,100.00
2022-08-01T03:20:28.179Z,100.00
2022-08-01T03:22:58.946Z,100.00
2022-08-01T03:25:28.855Z,100.00
2022-08-01T03:28:02.184Z,100.00
2022-08-01T03:30:32.244Z,100.00
2022-08-01T03:32:59.596Z,100.00
2022-08-01T03:35:43.552Z,100.00
2022-08-01T03:38:17.323Z,100.00
2022-08-01T03:41:22.014Z,100.00
2022-08-01T03:44:04.633Z,100.00
2022-08-01T03:46:48.147Z,100.00
2022-08-01T03:49:42.885Z,100.00
2022-08-01T03:52:11.177Z,100.00
2022-08-01T03:54:50.591Z,100.00
2022-08-01T03:57:36.050Z,100.00
2022-08-01T04:00:09.200Z,100.00
2022-08-01T04:02:37.853Z,100.00
2022-08-01T04:05:06.596Z,100.00
2022-08-01T04:07:39.987Z,100.00
2022-08-01T04:10:07.944Z,100.00
2022-08-01T04:12:35.854Z,100.00
2022-08-01T04:15:03.751Z,100.00
2022-08-01T04:17:30.628Z,100.00
2022-08-01T04:19:57.545Z,100.00
2022-08-01T04:22:24.413Z,100.00
2022-08-01T04:24:59.509Z,100.00
2022-08-01T04:27:51.015Z,100.00
2022-08-01T04:30:30.860Z,100.00
2022-08-01T04:33:02.127Z,100.00
2022-08-01T04:36:01.449Z,100.00
2022-08-01T04:38:28.359Z,100.00
2022-08-01T04:40:57.348Z,100.00
2022-08-01T04:43:24.439Z,100.00
2022-08-01T04:45:52.869Z,100.00
2022-08-01T04:48:23.181Z,100.00
2022-08-01T04:50:58.270Z,100.00
2022-08-01T04:53:25.158Z,100.00
2022-08-01T04:55:51.877Z,100.00
2022-08-01T04:58:19.248Z,100.00
2022-08-01T05:00:49.799Z,100.00
2022-08-01T05:03:16.863Z,100.00
2022-08-01T05:05:43.745Z,100.00
2022-08-01T05:08:11.001Z,100.00
2022-08-01T05:10:37.886Z,100.00
2022-08-01T05:13:04.668Z,100.00
2022-08-01T05:15:32.064Z,100.00
2022-08-01T05:17:59.214Z,100.00
2022-08-01T05:20:26.020Z,100.00
2022-08-01T05:22:52.687Z,100.00
2022-08-01T05:25:20.666Z,100.00
2022-08-01T05:28:06.150Z,100.00
2022-08-01T05:30:32.946Z,100.00
2022-08-01T05:32:59.597Z,100.00
2022-08-01T05:35:47.518Z,100.00
2022-08-01T05:38:15.261Z,100.00
2022-08-01T05:40:42.119Z,100.00
2022-08-01T05:43:08.807Z,100.00
2022-08-01T05:45:35.488Z,100.00
2022-08-01T05:48:02.312Z,100.00
2022-08-01T05:50:29.432Z,100.00
2022-08-01T05:52:56.192Z,100.00
2022-08-01T05:55:22.888Z,100.00
2022-08-01T05:57:49.559Z,100.00
2022-08-01T06:00:17.150Z,100.00
2022-08-01T06:02:49.001Z,100.00
2022-08-01T06:05:16.788Z,100.00
2022-08-01T06:07:43.887Z,100.00
2022-08-01T06:10:11.057Z,100.00
2022-08-01T06:12:38.871Z,100.00
2022-08-01T06:15:08.919Z,100.00
2022-08-01T06:17:35.719Z,100.00
2022-08-01T06:20:03.007Z,100.00
2022-08-01T06:22:29.867Z,100.00
2022-08-01T06:24:58.208Z,100.00
2022-08-01T06:27:27.967Z,100.00
2022-08-01T06:29:54.811Z,100.00
2022-08-01T06:32:26.663Z,100.00
2022-08-01T06:34:56.422Z,100.00
2022-08-01T06:37:24.284Z,100.00
2022-08-01T06:39:51.143Z,100.00
2022-08-01T06:42:18.497Z,100.00
2022-08-01T06:44:46.042Z,100.00
2022-08-01T06:47:13.434Z,100.00
2022-08-01T06:49:40.128Z,100.00
2022-08-01T06:52:10.651Z,100.00
2022-08-01T06:54:40.634Z,100.00
2022-08-01T06:57:09.973Z,100.00
2022-08-01T06:59:36.921Z,100.00
2022-08-01T07:02:04.268Z,100.00
2022-08-01T07:04:31.699Z,100.00
2022-08-01T07:06:58.975Z,100.00
2022-08-01T07:09:26.369Z,100.00
2022-08-01T07:11:54.020Z,100.00
2022-08-01T07:14:22.967Z,100.00
2022-08-01T07:16:51.043Z,100.00
2022-08-01T07:19:19.053Z,100.00
2022-08-01T07:21:45.750Z,100.00
2022-08-01T07:24:20.876Z,100.00
2022-08-01T07:26:52.492Z,100.00
2022-08-01T07:29:25.367Z,100.00
2022-08-01T07:31:56.896Z,100.00
2022-08-01T07:34:25.660Z,100.00
2022-08-01T07:36:54.220Z,100.00
2022-08-01T07:39:21.596Z,100.00
2022-08-01T07:42:06.159Z,100.00
2022-08-01T07:44:35.896Z,100.00
2022-08-01T07:47:02.918Z,100.00
2022-08-01T07:49:29.967Z,100.00
2022-08-01T07:52:03.897Z,100.00
2022-08-01T07:54:35.325Z,100.00
2022-08-01T07:57:03.981Z,100.00
2022-08-01T07:59:31.301Z,100.00
2022-08-01T08:01:58.972Z,100.00
2022-08-01T08:04:27.495Z,100.00
2022-08-01T08:06:55.151Z,100.00
2022-08-01T08:09:22.261Z,100.00
2022-08-01T08:11:49.853Z,100.00
2022-08-01T08:14:19.648Z,100.00
2022-08-01T08:16:46.921Z,100.00
2022-08-01T08:19:14.368Z,100.00
2022-08-01T08:21:42.177Z,100.00
2022-08-01T08:24:26.491Z,100.00
2022-08-01T08:27:04.496Z,100.00
2022-08-01T08:29:35.361Z,100.00
2022-08-01T08:32:07.750Z,100.00
2022-08-01T08:34:35.140Z,100.00
2022-08-01T08:37:02.025Z,100.00
2022-08-01T08:39:30.481Z,100.00
2022-08-01T08:42:01.274Z,100.00
2022-08-01T08:44:27.964Z,100.00
2022-08-01T08:46:58.913Z,100.00
2022-08-01T08:49:36.066Z,100.00
2022-08-01T08:52:06.160Z,100.00
2022-08-01T08:54:39.584Z,100.00
2022-08-01T08:57:08.551Z,100.00
2022-08-01T08:59:35.697Z,99.04
2022-08-01T09:02:02.683Z,100.00
2022-08-01T09:04:29.949Z,95.53
2022-08-01T09:06:56.727Z,95.11
2022-08-01T09:09:24.584Z,92.51
2022-08-01T09:11:56.823Z,91.49
2022-08-01T09:14:31.052Z,91.24
2022-08-01T09:17:09.395Z,92.96
2022-08-01T09:19:43.937Z,88.94
2022-08-01T09:22:23.432Z,85.93
2022-08-01T09:25:11.860Z,84.75
2022-08-01T09:27:44.222Z,85.66
2022-08-01T09:30:23.515Z,86.47
2022-08-01T09:33:11.206Z,86.51
2022-08-01T09:35:46.389Z,85.70
2022-08-01T09:38:28.050Z,89.87
2022-08-01T09:40:59.833Z,89.55
2022-08-01T09:43:32.431Z,87.04
2022-08-01T09:46:06.490Z,85.91
2022-08-01T09:48:55.315Z,85.26
2022-08-01T09:51:59.133Z,81.90
2022-08-01T09:54:35.213Z,79.50
2022-08-01T09:57:19.219Z,82.68
2022-08-01T09:59:58.669Z,81.36
2022-08-01T10:02:40.938Z,78.96
2022-08-01T10:05:18.702Z,78.37
2022-08-01T10:08:07.920Z,75.76
2022-08-01T10:10:37.439Z,77.69
2022-08-01T10:13:06.299Z,76.82
2022-08-01T10:15:38.039Z,78.67
2022-08-01T10:18:16.393Z,76.67
2022-08-01T10:20:56.343Z,72.13
2022-08-01T10:23:40.222Z,72.68
2022-08-01T10:26:13.565Z,71.94
2022-08-01T10:28:47.747Z,71.53
2022-08-01T10:31:15.354Z,69.08
2022-08-01T10:33:50.629Z,67.92
2022-08-01T10:36:22.552Z,68.33
2022-08-01T10:38:51.146Z,69.70
2022-08-01T10:41:21.919Z,67.85
2022-08-01T10:43:48.733Z,68.54
2022-08-01T10:46:21.758Z,66.22
2022-08-01T10:49:04.292Z,66.14
2022-08-01T10:51:34.900Z,66.42
2022-08-01T10:54:19.937Z,66.58
2022-08-01T10:56:53.836Z,64.23
2022-08-01T10:59:51.112Z,63.90
2022-08-01T11:02:41.743Z,63.33
2022-08-01T11:05:24.199Z,65.76
2022-08-01T11:07:55.560Z,63.58
2022-08-01T11:10:39.738Z,62.89
2022-08-01T11:13:13.613Z,61.44
2022-08-01T11:15:49.999Z,61.59
2022-08-01T11:18:32.675Z,58.53
2022-08-01T11:21:58.868Z,60.53
2022-08-01T11:23:57.831Z,59.31
2022-08-01T11:26:29.276Z,59.81
2022-08-01T11:29:20.908Z,57.25
2022-08-01T11:31:49.004Z,58.40
2022-08-01T11:34:17.283Z,57.84
2022-08-01T11:37:00.067Z,56.04
2022-08-01T11:39:27.570Z,54.05
2022-08-01T11:41:55.639Z,55.31
2022-08-01T11:44:28.245Z,55.36
2022-08-01T11:47:09.451Z,53.55
2022-08-01T11:49:45.246Z,51.71
2022-08-01T11:52:25.811Z,51.38
2022-08-01T11:55:18.680Z,50.96
2022-08-01T11:57:45.354Z,50.21
2022-08-01T12:00:19.744Z,50.06
2022-08-01T12:02:59.442Z,51.63
2022-08-01T12:05:32.696Z,50.61
2022-08-01T12:08:10.124Z,49.55
2022-08-01T12:10:49.431Z,49.96
2022-08-01T12:13:18.945Z,51.37
2022-08-01T12:15:47.296Z,50.67
2022-08-01T12:18:14.771Z,51.12
2022-08-01T12:21:02.042Z,49.58
2022-08-01T12:23:28.870Z,53.00
2022-08-01T12:25:55.596Z,51.33
2022-08-01T12:28:23.592Z,53.54
2022-08-01T12:30:51.041Z,51.63
2022-08-01T12:33:21.415Z,51.78
2022-08-01T12:35:49.139Z,51.99
2022-08-01T12:38:27.844Z,51.46
2022-08-01T12:40:55.701Z,49.86
2022-08-01T12:43:29.245Z,50.53
2022-08-01T12:46:02.541Z,48.09
2022-08-01T12:48:32.446Z,48.26
2022-08-01T12:51:03.317Z,49.56
2022-08-01T12:53:40.147Z,50.34
2022-08-01T12:56:11.599Z,49.80
2022-08-01T12:58:50.902Z,48.24
2022-08-01T13:01:31.090Z,49.91
2022-08-01T13:04:05.714Z,48.95
2022-08-01T13:06:33.757Z,49.55
2022-08-01T13:09:12.482Z,48.09
2022-08-01T13:11:39.414Z,48.60
2022-08-01T13:14:30.713Z,49.83
2022-08-01T13:16:57.699Z,51.32
2022-08-01T13:19:48.169Z,48.60
2022-08-01T13:22:14.935Z,48.99
2022-08-01T13:24:41.735Z,48.29
2022-08-01T13:27:08.560Z,46.95
2022-08-01T13:29:39.526Z,47.81
2022-08-01T13:32:27.817Z,46.71
2022-08-01T13:35:11.241Z,45.90
2022-08-01T13:37:41.249Z,46.13
2022-08-01T13:40:11.510Z,46.56
2022-08-01T13:42:39.326Z,46.46
2022-08-01T13:45:14.409Z,48.21
2022-08-01T13:48:03.890Z,45.84
2022-08-01T13:50:32.976Z,47.30
2022-08-01T13:52:59.893Z,47.91
2022-08-01T13:55:28.928Z,46.34
2022-08-01T13:58:00.858Z,47.76
2022-08-01T14:00:27.647Z,48.80
2022-08-01T14:02:54.414Z,45.82
2022-08-01T14:05:21.106Z,43.41
2022-08-01T14:07:49.853Z,43.66
2022-08-01T14:10:24.748Z,43.23
2022-08-01T14:12:51.673Z,42.09
2022-08-01T14:15:19.038Z,43.61
2022-08-01T14:18:07.842Z,44.52
2022-08-01T14:20:39.281Z,44.15
2022-08-01T14:23:08.968Z,46.42
2022-08-01T14:26:01.745Z,44.01
2022-08-01T14:28:28.997Z,46.72
2022-08-01T14:31:02.355Z,43.65
2022-08-01T14:33:30.023Z,43.19
2022-08-01T14:36:06.234Z,46.23
2022-08-01T14:38:46.872Z,44.06
2022-08-01T14:41:16.045Z,44.86
2022-08-01T14:43:43.495Z,44.14
2022-08-01T14:46:13.137Z,43.49
2022-08-01T14:48:39.996Z,43.68
2022-08-01T14:51:08.134Z,45.14
2022-08-01T14:53:37.391Z,42.70
2022-08-01T14:56:08.059Z,43.51
2022-08-01T14:58:36.213Z,42.25
2022-08-01T15:01:05.305Z,42.75
2022-08-01T15:03:33.044Z,45.28
2022-08-01T15:06:00.295Z,44.76
2022-08-01T15:08:27.418Z,44.88
2022-08-01T15:10:54.082Z,43.82
2022-08-01T15:13:20.817Z,44.36
2022-08-01T15:15:50.616Z,46.00
2022-08-01T15:18:17.512Z,44.00
2022-08-01T15:20:44.841Z,44.93
2022-08-01T15:23:11.597Z,43.34
2022-08-01T15:25:40.430Z,44.56
2022-08-01T15:28:12.777Z,46.09
2022-08-01T15:30:39.901Z,46.12
2022-08-01T15:33:07.230Z,45.68
2022-08-01T15:35:34.702Z,44.00
2022-08-01T15:38:01.986Z,44.76
2022-08-01T15:40:29.454Z,44.24
2022-08-01T15:42:56.458Z,43.00
2022-08-01T15:48:10.802Z,43.46
2022-08-01T15:50:39.369Z,42.74
2022-08-01T15:53:07.682Z,43.03
2022-08-01T15:55:38.873Z,42.41
2022-08-01T15:58:08.127Z,42.90
2022-08-01T16:00:39.194Z,43.86
2022-08-01T16:03:10.335Z,43.36
2022-08-01T16:05:43.798Z,44.15
2022-08-01T16:08:13.658Z,42.06
2022-08-01T16:10:41.033Z,42.89
2022-08-01T16:13:08.262Z,42.56
2022-08-01T16:15:37.989Z,41.57
2022-08-01T16:18:15.909Z,43.55
2022-08-01T16:20:45.828Z,43.71
2022-08-01T16:23:15.591Z,45.10
2022-08-01T16:25:44.601Z,47.50
2022-08-01T16:28:12.230Z,47.23
2022-08-01T16:30:41.608Z,46.95
2022-08-01T16:33:42.880Z,49.30
2022-08-01T16:36:07.910Z,49.63
2022-08-01T16:38:43.588Z,48.89
2022-08-01T16:41:19.980Z,49.75
2022-08-01T16:43:53.413Z,48.67
2022-08-01T16:46:24.833Z,49.23
2022-08-01T16:48:51.719Z,48.72
2022-08-01T16:51:18.542Z,50.45
2022-08-01T16:53:45.260Z,51.57
2022-08-01T16:56:12.342Z,52.13
2022-08-01T16:58:41.565Z,52.17
2022-08-01T17:01:56.155Z,52.61
2022-08-01T17:03:59.434Z,52.37
2022-08-01T17:06:28.233Z,52.15
2022-08-01T17:08:55.064Z,53.20
2022-08-01T17:11:21.952Z,53.86
2022-08-01T17:13:48.996Z,53.53
2022-08-01T17:16:15.798Z,54.70
2022-08-01T17:18:45.237Z,55.07
2022-08-01T17:21:12.032Z,56.46
2022-08-01T17:23:41.751Z,58.05
2022-08-01T17:26:08.531Z,59.96
2022-08-01T17:28:39.552Z,59.69
2022-08-01T17:31:07.475Z,60.49
2022-08-01T17:33:46.085Z,61.74
2022-08-01T17:36:17.776Z,62.91
2022-08-01T17:38:47.884Z,64.03
2022-08-01T17:41:14.901Z,64.43
2022-08-01T17:43:41.985Z,64.00
2022-08-01T17:46:09.261Z,65.04
2022-08-01T17:48:36.539Z,65.32
2022-08-01T17:51:03.979Z,65.15
2022-08-01T17:53:30.813Z,65.89
2022-08-01T17:55:58.887Z,66.49
2022-08-01T17:58:48.802Z,66.52
2022-08-01T18:01:18.904Z,66.37
2022-08-01T18:03:47.473Z,66.77
2022-08-01T18:06:18.947Z,66.93
2022-08-01T18:08:47.963Z,68.22
2022-08-01T18:11:17.135Z,67.85
2022-08-01T18:13:44.721Z,69.21
2022-08-01T18:16:13.326Z,69.74
2022-08-01T18:18:45.866Z,71.09
2022-08-01T18:21:13.022Z,73.20
2022-08-01T18:23:51.454Z,73.68
2022-08-01T18:26:21.841Z,74.85
2022-08-01T18:28:49.458Z,75.30
2022-08-01T18:31:17.819Z,75.96
2022-08-01T18:33:48.972Z,75.92
2022-08-01T18:36:32.975Z,77.40
2022-08-01T18:39:10.116Z,76.62
2022-08-01T18:41:39.350Z,76.56
2022-08-01T18:44:07.975Z,78.15
2022-08-01T18:46:40.321Z,77.53
2022-08-01T18:49:10.896Z,79.40
2022-08-01T18:51:44.230Z,80.87
2022-08-01T18:54:12.558Z,82.61
2022-08-01T18:56:39.373Z,83.90
2022-08-01T18:59:06.708Z,83.91
2022-08-01T19:01:33.705Z,83.84
2022-08-01T19:04:00.680Z,84.31
2022-08-01T19:06:28.871Z,84.94
2022-08-01T19:09:01.538Z,85.07
2022-08-01T19:11:30.920Z,85.84
2022-08-01T19:13:58.791Z,86.62
2022-08-01T19:16:30.040Z,87.93
2022-08-01T19:18:56.815Z,88.07
2022-08-01T19:21:23.859Z,88.59
2022-08-01T19:24:08.869Z,88.32
2022-08-01T19:26:40.224Z,89.76
2022-08-01T19:29:22.670Z,90.50
2022-08-01T19:31:51.842Z,89.57
2022-08-01T19:34:26.657Z,89.89
2022-08-01T19:36:58.477Z,91.29
2022-08-01T19:39:27.306Z,90.57
2022-08-01T19:41:59.386Z,91.59
2022-08-01T19:44:29.587Z,93.09
2022-08-01T19:46:56.851Z,93.09
2022-08-01T19:49:24.401Z,94.02
2022-08-01T19:52:15.271Z,95.28
2022-08-01T19:54:45.519Z,95.67
2022-08-01T19:57:16.116Z,96.80
2022-08-01T19:59:47.333Z,96.55
2022-08-01T20:02:25.405Z,97.31
2022-08-01T20:04:52.703Z,98.48
2022-08-01T20:07:19.496Z,98.26
2022-08-01T20:09:48.459Z,99.87
2022-08-01T20:12:15.480Z,100.00
2022-08-01T20:14:43.796Z,100.00
2022-08-01T20:17:10.681Z,100.00
2022-08-01T20:19:51.253Z,100.00
2022-08-01T20:22:29.266Z,100.00
2022-08-01T20:25:00.086Z,100.00
2022-08-01T20:27:34.314Z,100.00
2022-08-01T20:30:01.372Z,100.00
2022-08-01T20:32:34.464Z,100.00
2022-08-01T20:35:06.485Z,100.00
2022-08-01T20:38:06.066Z,100.00
2022-08-01T20:40:27.749Z,100.00
2022-08-01T20:42:57.527Z,100.00
2022-08-01T20:45:27.157Z,100.00
2022-08-01T20:48:02.972Z,100.00
2022-08-01T20:50:53.887Z,100.00
2022-08-01T20:53:26.848Z,100.00
2022-08-01T20:56:30.071Z,100.00
2022-08-01T20:59:39.806Z,100.00
2022-08-01T21:03:02.409Z,100.00
2022-08-01T21:05:58.699Z,100.00
2022-08-01T21:08:47.575Z,100.00
2022-08-01T21:11:25.910Z,100.00
2022-08-01T21:14:15.328Z,100.00
2022-08-01T21:17:05.598Z,100.00
2022-08-01T21:19:41.395Z,100.00
2022-08-01T21:22:41.652Z,100.00
2022-08-01T21:25:23.247Z,100.00
2022-08-01T21:27:53.122Z,100.00
2022-08-01T21:30:21.205Z,100.00
2022-08-01T21:32:49.750Z,100.00
2022-08-01T21:35:22.825Z,100.00
2022-08-01T21:37:52.651Z,100.00
2022-08-01T21:40:24.326Z,100.00
2022-08-01T21:42:54.583Z,100.00
2022-08-01T21:45:27.439Z,100.00
2022-08-01T21:47:57.113Z,100.00
2022-08-01T21:50:24.873Z,100.00
2022-08-01T21:53:31.886Z,100.00
2022-08-01T21:56:38.833Z,100.00
2022-08-01T21:59:51.243Z,100.00
2022-08-01T22:02:35.476Z,100.00
2022-08-01T22:05:11.081Z,100.00
2022-08-01T22:07:58.764Z,100.00
2022-08-01T22:10:27.368Z,100.00
2022-08-01T22:12:55.078Z,100.00
2022-08-01T22:15:44.321Z,100.00
2022-08-01T22:18:12.162Z,100.00
2022-08-01T22:20:40.422Z,100.00
2022-08-01T22:23:07.745Z,100.00
2022-08-01T22:25:36.181Z,100.00
2022-08-01T22:28:09.329Z,100.00
2022-08-01T22:30:49.562Z,100.00
2022-08-01T22:33:18.027Z,100.00
2022-08-01T22:35:52.811Z,100.00
2022-08-01T22:38:24.667Z,100.00
2022-08-01T22:41:06.726Z,100.00
2022-08-01T22:44:25.474Z,100.00
2022-08-01T22:47:07.750Z,100.00
2022-08-01T22:50:00.620Z,100.00
2022-08-01T22:52:39.619Z,100.00
2022-08-01T22:55:10.769Z,100.00
2022-08-01T22:58:12.061Z,100.00
2022-08-01T23:00:42.930Z,100.00
2022-08-01T23:03:24.258Z,100.00
2022-08-01T23:06:20.457Z,100.00
2022-08-01T23:08:51.370Z,100.00
2022-08-01T23:11:24.258Z,100.00
2022-08-01T23:13:52.487Z,100.00
2022-08-01T23:16:20.285Z,100.00
2022-08-01T23:18:49.132Z,100.00
2022-08-01T23:21:19.764Z,100.00
2022-08-01T23:23:48.654Z,100.00
2022-08-01T23:26:17.260Z,100.00
2022-08-01T23:28:45.854Z,100.00
2022-08-01T23:31:17.029Z,100.00
2022-08-01T23:33:44.092Z,100.00
2022-08-01T23:36:11.430Z,100.00
2022-08-01T23:38:38.209Z,100.00
2022-08-01T23:41:14.846Z,100.00
2022-08-01T23:43:52.040Z,100.00
2022-08-01T23:46:19.732Z,100.00
2022-08-01T23:48:46.866Z,100.00
2022-08-01T23:51:23.907Z,100.00
2022-08-01T23:53:54.017Z,100.00
2022-08-01T23:56:25.314Z,100.00
2022-08-01T23:58:54.931Z,100.00
